sensor_id;sensor_type;location;lat;lon;timestamp;P1;durP1;ratioP1;P2;durP2;ratioP2
21517;SDS011;61765;45.794;24.150;2023-06-19T00:04:46;8.95;;;4.78;;
21517;SDS011;61765;45.794;24.150;2023-06-19T00:12:51;4.38;;;3.97;;
21517;SDS011;61765;45.794;24.150;2023-06-19T00:20:59;4.78;;;4.32;;
21517;SDS011;61765;45.794;24.150;2023-06-19T00:29:07;5.25;;;4.75;;
21517;SDS011;61765;45.794;24.150;2023-06-19T00:37:15;5.97;;;4.90;;
21517;SDS011;61765;45.794;24.150;2023-06-19T00:45:21;10.20;;;4.90;;
21517;SDS011;61765;45.794;24.150;2023-06-19T00:53:29;8.80;;;5.43;;
21517;SDS011;61765;45.794;24.150;2023-06-19T01:01:37;8.52;;;6.00;;
21517;SDS011;61765;45.794;24.150;2023-06-19T01:09:46;8.15;;;6.10;;
21517;SDS011;61765;45.794;24.150;2023-06-19T01:17:54;6.18;;;5.32;;
21517;SDS011;61765;45.794;24.150;2023-06-19T01:26:05;10.60;;;5.97;;
21517;SDS011;61765;45.794;24.150;2023-06-19T01:34:12;8.50;;;5.03;;
21517;SDS011;61765;45.794;24.150;2023-06-19T01:42:24;9.73;;;5.82;;
21517;SDS011;61765;45.794;24.150;2023-06-19T01:50:30;6.82;;;5.30;;
21517;SDS011;61765;45.794;24.150;2023-06-19T01:58:38;9.25;;;4.93;;
21517;SDS011;61765;45.794;24.150;2023-06-19T02:06:44;9.13;;;6.22;;
21517;SDS011;61765;45.794;24.150;2023-06-19T02:14:53;8.80;;;6.30;;
21517;SDS011;61765;45.794;24.150;2023-06-19T02:22:58;7.03;;;5.10;;
21517;SDS011;61765;45.794;24.150;2023-06-19T02:31:06;7.35;;;5.28;;
21517;SDS011;61765;45.794;24.150;2023-06-19T02:39:12;6.47;;;5.30;;
21517;SDS011;61765;45.794;24.150;2023-06-19T02:47:20;10.50;;;5.80;;
21517;SDS011;61765;45.794;24.150;2023-06-19T02:55:25;5.00;;;4.50;;
21517;SDS011;61765;45.794;24.150;2023-06-19T03:03:33;5.30;;;4.80;;
21517;SDS011;61765;45.794;24.150;2023-06-19T03:11:39;5.05;;;4.25;;
21517;SDS011;61765;45.794;24.150;2023-06-19T03:19:47;5.55;;;4.35;;
21517;SDS011;61765;45.794;24.150;2023-06-19T03:27:53;4.60;;;3.90;;
21517;SDS011;61765;45.794;24.150;2023-06-19T03:36:01;4.63;;;3.42;;
21517;SDS011;61765;45.794;24.150;2023-06-19T03:44:22;5.13;;;4.25;;
21517;SDS011;61765;45.794;24.150;2023-06-19T03:52:30;4.63;;;3.40;;
21517;SDS011;61765;45.794;24.150;2023-06-19T04:00:36;3.35;;;3.05;;
21517;SDS011;61765;45.794;24.150;2023-06-19T04:08:45;4.05;;;3.55;;
21517;SDS011;61765;45.794;24.150;2023-06-19T04:16:51;3.33;;;3.03;;
21517;SDS011;61765;45.794;24.150;2023-06-19T04:24:59;4.95;;;3.53;;
21517;SDS011;61765;45.794;24.150;2023-06-19T04:33:04;8.02;;;4.32;;
21517;SDS011;61765;45.794;24.150;2023-06-19T04:41:13;4.40;;;4.00;;
21517;SDS011;61765;45.794;24.150;2023-06-19T04:49:18;6.72;;;4.53;;
21517;SDS011;61765;45.794;24.150;2023-06-19T04:57:27;7.95;;;5.32;;
21517;SDS011;61765;45.794;24.150;2023-06-19T05:05:34;4.93;;;4.50;;
21517;SDS011;61765;45.794;24.150;2023-06-19T05:13:42;7.03;;;5.28;;
21517;SDS011;61765;45.794;24.150;2023-06-19T05:21:47;7.10;;;5.15;;
21517;SDS011;61765;45.794;24.150;2023-06-19T05:29:55;8.90;;;5.32;;
21517;SDS011;61765;45.794;24.150;2023-06-19T05:38:01;12.25;;;5.80;;
21517;SDS011;61765;45.794;24.150;2023-06-19T05:46:09;5.57;;;5.00;;
21517;SDS011;61765;45.794;24.150;2023-06-19T05:54:15;7.82;;;5.07;;
21517;SDS011;61765;45.794;24.150;2023-06-19T06:02:23;7.97;;;6.75;;
21517;SDS011;61765;45.794;24.150;2023-06-19T06:10:30;7.85;;;6.28;;
21517;SDS011;61765;45.794;24.150;2023-06-19T06:18:38;8.52;;;7.57;;
21517;SDS011;61765;45.794;24.150;2023-06-19T06:26:43;8.60;;;7.78;;
21517;SDS011;61765;45.794;24.150;2023-06-19T06:34:52;11.90;;;8.60;;
21517;SDS011;61765;45.794;24.150;2023-06-19T06:42:57;12.25;;;8.88;;
21517;SDS011;61765;45.794;24.150;2023-06-19T06:51:07;11.40;;;8.10;;
21517;SDS011;61765;45.794;24.150;2023-06-19T06:59:13;12.20;;;8.43;;
21517;SDS011;61765;45.794;24.150;2023-06-19T07:07:22;9.18;;;8.23;;
21517;SDS011;61765;45.794;24.150;2023-06-19T07:15:28;11.27;;;9.07;;
21517;SDS011;61765;45.794;24.150;2023-06-19T07:23:36;8.65;;;7.85;;
21517;SDS011;61765;45.794;24.150;2023-06-19T07:31:41;11.35;;;9.10;;
21517;SDS011;61765;45.794;24.150;2023-06-19T07:39:50;9.20;;;8.32;;
21517;SDS011;61765;45.794;24.150;2023-06-19T07:47:56;13.15;;;9.50;;
21517;SDS011;61765;45.794;24.150;2023-06-19T07:56:04;13.05;;;9.43;;
21517;SDS011;61765;45.794;24.150;2023-06-19T08:04:10;11.18;;;9.05;;
21517;SDS011;61765;45.794;24.150;2023-06-19T08:12:18;9.00;;;8.10;;
21517;SDS011;61765;45.794;24.150;2023-06-19T08:20:25;9.27;;;8.38;;
21517;SDS011;61765;45.794;24.150;2023-06-19T08:28:33;8.90;;;7.93;;
21517;SDS011;61765;45.794;24.150;2023-06-19T08:36:38;8.00;;;7.30;;
21517;SDS011;61765;45.794;24.150;2023-06-19T08:44:48;10.90;;;8.02;;
21517;SDS011;61765;45.794;24.150;2023-06-19T08:52:55;8.77;;;7.40;;
21517;SDS011;61765;45.794;24.150;2023-06-19T09:01:04;8.35;;;7.50;;
21517;SDS011;61765;45.794;24.150;2023-06-19T09:09:12;8.95;;;7.18;;
21517;SDS011;61765;45.794;24.150;2023-06-19T09:17:20;10.82;;;8.05;;
21517;SDS011;61765;45.794;24.150;2023-06-19T09:25:42;11.20;;;7.75;;
21517;SDS011;61765;45.794;24.150;2023-06-19T09:33:51;9.07;;;8.18;;
21517;SDS011;61765;45.794;24.150;2023-06-19T09:41:57;8.43;;;7.57;;
21517;SDS011;61765;45.794;24.150;2023-06-19T09:50:10;6.05;;;5.47;;
21517;SDS011;61765;45.794;24.150;2023-06-19T09:58:22;6.07;;;5.47;;
21517;SDS011;61765;45.794;24.150;2023-06-19T10:06:31;8.63;;;6.90;;
21517;SDS011;61765;45.794;24.150;2023-06-19T10:14:44;6.82;;;6.22;;
21517;SDS011;61765;45.794;24.150;2023-06-19T10:24:25;7.93;;;6.30;;
21517;SDS011;61765;45.794;24.150;2023-06-19T10:34:14;7.50;;;5.32;;
21517;SDS011;61765;45.794;24.150;2023-06-19T10:42:22;5.85;;;4.88;;
21517;SDS011;61765;45.794;24.150;2023-06-19T10:50:27;5.47;;;4.97;;
21517;SDS011;61765;45.794;24.150;2023-06-19T10:58:36;6.30;;;4.97;;
21517;SDS011;61765;45.794;24.150;2023-06-19T11:06:42;9.80;;;5.13;;
21517;SDS011;61765;45.794;24.150;2023-06-19T11:14:52;4.97;;;4.40;;
21517;SDS011;61765;45.794;24.150;2023-06-19T11:22:58;5.65;;;4.78;;
21517;SDS011;61765;45.794;24.150;2023-06-19T11:31:07;5.03;;;4.40;;
21517;SDS011;61765;45.794;24.150;2023-06-19T11:39:14;5.60;;;4.03;;
21517;SDS011;61765;45.794;24.150;2023-06-19T11:47:24;4.60;;;4.15;;
21517;SDS011;61765;45.794;24.150;2023-06-19T11:55:29;5.28;;;4.78;;
21517;SDS011;61765;45.794;24.150;2023-06-19T12:03:37;4.15;;;3.75;;
21517;SDS011;61765;45.794;24.150;2023-06-19T12:11:43;7.88;;;5.10;;
21517;SDS011;61765;45.794;24.150;2023-06-19T12:19:51;9.63;;;7.72;;
21517;SDS011;61765;45.794;24.150;2023-06-19T12:36:16;5.03;;;3.67;;
21517;SDS011;61765;45.794;24.150;2023-06-19T12:44:22;3.92;;;3.58;;
21517;SDS011;61765;45.794;24.150;2023-06-19T12:52:30;4.53;;;3.38;;
21517;SDS011;61765;45.794;24.150;2023-06-19T13:00:36;3.63;;;3.30;;
21517;SDS011;61765;45.794;24.150;2023-06-19T13:08:44;3.25;;;2.95;;
21517;SDS011;61765;45.794;24.150;2023-06-19T13:16:49;4.47;;;3.10;;
21517;SDS011;61765;45.794;24.150;2023-06-19T13:24:58;3.50;;;3.17;;
21517;SDS011;61765;45.794;24.150;2023-06-19T13:33:03;3.28;;;3.00;;
21517;SDS011;61765;45.794;24.150;2023-06-19T13:41:12;3.80;;;3.50;;
21517;SDS011;61765;45.794;24.150;2023-06-19T13:49:17;3.60;;;3.30;;
21517;SDS011;61765;45.794;24.150;2023-06-19T13:57:25;4.93;;;4.50;;
21517;SDS011;61765;45.794;24.150;2023-06-19T14:13:43;4.45;;;4.00;;
21517;SDS011;61765;45.794;24.150;2023-06-19T14:29:57;3.90;;;3.60;;
21517;SDS011;61765;45.794;24.150;2023-06-19T14:38:02;4.25;;;3.70;;
21517;SDS011;61765;45.794;24.150;2023-06-19T14:46:10;4.30;;;3.90;;
21517;SDS011;61765;45.794;24.150;2023-06-19T14:54:34;4.65;;;4.20;;
21517;SDS011;61765;45.794;24.150;2023-06-19T15:02:42;9.13;;;6.90;;
21517;SDS011;61765;45.794;24.150;2023-06-19T15:10:47;5.60;;;4.43;;
21517;SDS011;61765;45.794;24.150;2023-06-19T15:18:55;5.80;;;5.20;;
21517;SDS011;61765;45.794;24.150;2023-06-19T15:27:01;5.15;;;4.65;;
21517;SDS011;61765;45.794;24.150;2023-06-19T15:35:09;6.80;;;5.72;;
21517;SDS011;61765;45.794;24.150;2023-06-19T15:43:15;8.95;;;5.88;;
21517;SDS011;61765;45.794;24.150;2023-06-19T15:51:23;7.18;;;5.78;;
21517;SDS011;61765;45.794;24.150;2023-06-19T15:59:28;5.38;;;4.60;;
21517;SDS011;61765;45.794;24.150;2023-06-19T16:07:36;6.13;;;5.43;;
21517;SDS011;61765;45.794;24.150;2023-06-19T16:15:42;6.00;;;4.97;;
21517;SDS011;61765;45.794;24.150;2023-06-19T16:23:50;8.73;;;5.82;;
21517;SDS011;61765;45.794;24.150;2023-06-19T16:31:55;7.63;;;5.22;;
21517;SDS011;61765;45.794;24.150;2023-06-19T16:40:13;6.20;;;5.53;;
21517;SDS011;61765;45.794;24.150;2023-06-19T16:48:19;7.22;;;6.20;;
21517;SDS011;61765;45.794;24.150;2023-06-19T16:56:28;10.18;;;6.82;;
21517;SDS011;61765;45.794;24.150;2023-06-19T17:04:33;11.27;;;6.68;;
21517;SDS011;61765;45.794;24.150;2023-06-19T17:12:42;9.40;;;6.43;;
21517;SDS011;61765;45.794;24.150;2023-06-19T17:20:51;7.25;;;6.28;;
21517;SDS011;61765;45.794;24.150;2023-06-19T17:29:00;8.65;;;6.55;;
21517;SDS011;61765;45.794;24.150;2023-06-19T17:37:06;12.90;;;7.68;;
21517;SDS011;61765;45.794;24.150;2023-06-19T17:45:14;9.07;;;7.78;;
21517;SDS011;61765;45.794;24.150;2023-06-19T17:53:19;9.63;;;6.90;;
21517;SDS011;61765;45.794;24.150;2023-06-19T18:01:27;8.93;;;7.80;;
21517;SDS011;61765;45.794;24.150;2023-06-19T18:09:33;10.18;;;7.55;;
21517;SDS011;61765;45.794;24.150;2023-06-19T18:17:41;10.25;;;8.52;;
21517;SDS011;61765;45.794;24.150;2023-06-19T18:25:47;11.30;;;6.97;;
21517;SDS011;61765;45.794;24.150;2023-06-19T18:33:55;7.85;;;7.05;;
21517;SDS011;61765;45.794;24.150;2023-06-19T18:42:01;9.98;;;8.10;;
21517;SDS011;61765;45.794;24.150;2023-06-19T18:50:10;7.63;;;6.32;;
21517;SDS011;61765;45.794;24.150;2023-06-19T18:58:18;7.63;;;5.43;;
21517;SDS011;61765;45.794;24.150;2023-06-19T19:06:29;6.57;;;5.88;;
21517;SDS011;61765;45.794;24.150;2023-06-19T19:14:36;6.53;;;5.60;;
21517;SDS011;61765;45.794;24.150;2023-06-19T19:22:45;10.18;;;5.72;;
21517;SDS011;61765;45.794;24.150;2023-06-19T19:30:51;9.43;;;5.97;;
21517;SDS011;61765;45.794;24.150;2023-06-19T19:39:01;7.43;;;5.53;;
21517;SDS011;61765;45.794;24.150;2023-06-19T19:47:06;9.60;;;6.32;;
21517;SDS011;61765;45.794;24.150;2023-06-19T19:55:15;7.05;;;5.53;;
21517;SDS011;61765;45.794;24.150;2023-06-19T20:03:20;11.52;;;8.73;;
21517;SDS011;61765;45.794;24.150;2023-06-19T20:11:28;8.57;;;7.15;;
21517;SDS011;61765;45.794;24.150;2023-06-19T20:19:34;11.32;;;7.28;;
21517;SDS011;61765;45.794;24.150;2023-06-19T20:27:42;8.07;;;6.00;;
21517;SDS011;61765;45.794;24.150;2023-06-19T20:36:07;9.50;;;6.47;;
21517;SDS011;61765;45.794;24.150;2023-06-19T20:44:15;5.97;;;4.47;;
21517;SDS011;61765;45.794;24.150;2023-06-19T20:52:21;9.77;;;6.32;;
21517;SDS011;61765;45.794;24.150;2023-06-19T21:00:29;8.50;;;6.88;;
21517;SDS011;61765;45.794;24.150;2023-06-19T21:08:34;10.88;;;7.05;;
21517;SDS011;61765;45.794;24.150;2023-06-19T21:16:43;7.57;;;6.78;;
21517;SDS011;61765;45.794;24.150;2023-06-19T21:24:48;9.88;;;7.00;;
21517;SDS011;61765;45.794;24.150;2023-06-19T21:32:56;8.43;;;6.85;;
21517;SDS011;61765;45.794;24.150;2023-06-19T21:41:02;9.40;;;6.47;;
21517;SDS011;61765;45.794;24.150;2023-06-19T21:49:10;9.00;;;6.20;;
21517;SDS011;61765;45.794;24.150;2023-06-19T21:57:16;11.32;;;6.88;;
21517;SDS011;61765;45.794;24.150;2023-06-19T22:05:24;8.05;;;6.28;;
21517;SDS011;61765;45.794;24.150;2023-06-19T22:13:29;8.02;;;6.07;;
21517;SDS011;61765;45.794;24.150;2023-06-19T22:21:39;7.78;;;6.22;;
21517;SDS011;61765;45.794;24.150;2023-06-19T22:29:44;7.60;;;6.60;;
21517;SDS011;61765;45.794;24.150;2023-06-19T22:37:52;10.65;;;7.05;;
21517;SDS011;61765;45.794;24.150;2023-06-19T22:45:58;10.68;;;7.95;;
21517;SDS011;61765;45.794;24.150;2023-06-19T22:54:07;10.20;;;7.72;;
21517;SDS011;61765;45.794;24.150;2023-06-19T23:02:13;7.85;;;6.47;;
21517;SDS011;61765;45.794;24.150;2023-06-19T23:10:21;9.07;;;7.45;;
21517;SDS011;61765;45.794;24.150;2023-06-19T23:18:27;9.80;;;7.00;;
21517;SDS011;61765;45.794;24.150;2023-06-19T23:26:35;7.72;;;6.13;;
21517;SDS011;61765;45.794;24.150;2023-06-19T23:34:40;7.68;;;6.75;;
21517;SDS011;61765;45.794;24.150;2023-06-19T23:42:48;9.82;;;6.25;;
21517;SDS011;61765;45.794;24.150;2023-06-19T23:50:55;10.23;;;7.72;;
21517;SDS011;61765;45.794;24.150;2023-06-19T23:59:03;18.23;;;9.57;;
